Time;durP1;ratioP1;P1;durP2;ratioP2;P2;SDS_P1;SDS_P2;PMS_P1;PMS_P2;Temp;Humidity;BMP_temperature;BMP_pressure;BME280_temperature;BME280_humidity;BME280_pressure;Samples;Min_cycle;Max_cycle;Signal;HPM_P1;HPM_P2
2023/04/27 00:00:09;;;;;;;0.47;0.28;;;;;;;;;;5035556;28;20461;-78
2023/04/27 00:02:36;;;;;;;0.60;0.60;;;;;;;;;;5020272;28;20127;-78
2023/04/27 00:05:02;;;;;;;0.15;0.15;;;;;;;;;;5003003;28;20029;-76
2023/04/27 00:07:27;;;;;;;0.85;0.43;;;;;;;;;;5053128;28;20458;-76
2023/04/27 00:09:53;;;;;;;0.57;0.57;;;;;;;;;;5002474;28;20090;-76
2023/04/27 00:12:18;;;;;;;0.50;0.50;;;;;;;;;;5035371;28;20029;-76
2023/04/27 00:14:44;;;;;;;0.50;0.43;;;;;;;;;;5018782;28;20122;-76
2023/04/27 00:17:09;;;;;;;0.63;0.63;;;;;;;;;;5020824;28;20098;-77
2023/04/27 00:19:35;;;;;;;1.17;0.80;;;;;;;;;;5022468;28;20033;-78
2023/04/27 00:22:00;;;;;;;0.50;0.50;;;;;;;;;;5022457;28;20036;-76
2023/04/27 00:24:26;;;;;;;1.33;0.40;;;;;;;;;;5022391;28;20033;-76
2023/04/27 00:26:51;;;;;;;0.82;0.45;;;;;;;;;;5038981;28;20094;-76
2023/04/27 00:29:17;;;;;;;0.90;0.50;;;;;;;;;;5039009;28;20035;-76
2023/04/27 00:31:42;;;;;;;0.85;0.20;;;;;;;;;;5056491;28;20111;-77
2023/04/27 00:34:07;;;;;;;0.55;0.52;;;;;;;;;;5022200;28;20072;-77
2023/04/27 00:36:33;;;;;;;1.92;0.95;;;;;;;;;;5039033;28;20111;-76
2023/04/27 00:38:59;;;;;;;0.85;0.45;;;;;;;;;;5038562;28;20036;-77
2023/04/27 00:41:25;;;;;;;1.35;0.73;;;;;;;;;;5038656;28;20029;-77
2023/04/27 00:43:50;;;;;;;0.68;0.30;;;;;;;;;;5038573;28;20055;-76
2023/04/27 00:46:16;;;;;;;0.22;0.10;;;;;;;;;;5056272;28;20424;-77
2023/04/27 00:48:41;;;;;;;0.20;0.20;;;;;;;;;;5021982;28;20032;-76
2023/04/27 00:51:07;;;;;;;3.00;0.80;;;;;;;;;;5005708;28;20078;-76
2023/04/27 00:53:32;;;;;;;0.57;0.25;;;;;;;;;;5005674;28;20033;-76
2023/04/27 00:55:58;;;;;;;1.10;0.82;;;;;;;;;;5022016;28;20060;-76
2023/04/27 00:58:23;;;;;;;0.45;0.40;;;;;;;;;;5038155;28;20029;-76
2023/04/27 01:00:49;;;;;;;0.43;0.20;;;;;;;;;;5021794;28;20091;-76
2023/04/27 01:03:15;;;;;;;1.85;0.30;;;;;;;;;;5021643;28;20032;-78
2023/04/27 01:05:41;;;;;;;0.75;0.20;;;;;;;;;;5005488;28;20029;-76
2023/04/27 01:08:06;;;;;;;0.30;0.25;;;;;;;;;;5021633;28;20037;-76
2023/04/27 01:10:31;;;;;;;0.22;0.22;;;;;;;;;;5037833;28;20083;-77
2023/04/27 01:12:57;;;;;;;0.13;0.13;;;;;;;;;;5037945;28;20026;-76
2023/04/27 01:15:22;;;;;;;0.47;0.30;;;;;;;;;;5021491;28;20434;-77
2023/04/27 01:17:48;;;;;;;0.65;0.65;;;;;;;;;;5021249;28;20112;-78
2023/04/27 01:20:13;;;;;;;9.80;0.43;;;;;;;;;;5055697;28;20326;-78
2023/04/27 01:22:39;;;;;;;0.20;0.20;;;;;;;;;;5037946;28;20025;-78
2023/04/27 01:25:06;;;;;;;0.77;0.75;;;;;;;;;;5021724;28;20029;-78
2023/04/27 01:27:32;;;;;;;0.20;0.15;;;;;;;;;;5037886;28;20029;-78
2023/04/27 01:29:57;;;;;;;0.17;0.10;;;;;;;;;;5054818;28;20111;-78
2023/04/27 01:32:23;;;;;;;0.20;0.20;;;;;;;;;;5037389;28;20442;-79
2023/04/27 01:34:48;;;;;;;2.90;2.10;;;;;;;;;;5037771;28;20398;-79
2023/04/27 01:37:14;;;;;;;0.80;0.80;;;;;;;;;;5055693;28;20124;-78
2023/04/27 01:39:40;;;;;;;1.80;1.65;;;;;;;;;;5037719;28;20028;-80
2023/04/27 01:42:05;;;;;;;0.50;0.50;;;;;;;;;;5020902;28;20093;-77
2023/04/27 01:44:31;;;;;;;1.65;0.45;;;;;;;;;;5055247;28;20025;-78
2023/04/27 01:46:56;;;;;;;0.85;0.40;;;;;;;;;;5020691;28;20032;-77
2023/04/27 01:49:21;;;;;;;0.47;0.30;;;;;;;;;;5037582;28;20021;-78
2023/04/27 01:51:47;;;;;;;0.10;0.10;;;;;;;;;;5037424;28;20272;-77
2023/04/27 01:54:12;;;;;;;0.85;0.65;;;;;;;;;;5021026;28;20029;-78
2023/04/27 01:56:38;;;;;;;0.85;0.75;;;;;;;;;;5020908;28;20049;-78
2023/04/27 01:59:03;;;;;;;0.65;0.20;;;;;;;;;;5037216;28;20434;-79
2023/04/27 02:01:30;;;;;;;0.47;0.17;;;;;;;;;;5036964;28;20335;-79
2023/04/27 02:03:55;;;;;;;0.88;0.80;;;;;;;;;;5021000;28;20036;-77
2023/04/27 02:06:21;;;;;;;3.95;0.30;;;;;;;;;;5020410;28;20032;-79
2023/04/27 02:08:46;;;;;;;0.77;0.40;;;;;;;;;;5004253;28;20021;-78
2023/04/27 02:11:13;;;;;;;0.32;0.20;;;;;;;;;;5055231;28;20053;-79
2023/04/27 02:13:39;;;;;;;0.50;0.50;;;;;;;;;;5036745;28;20036;-78
2023/04/27 02:16:05;;;;;;;0.47;0.40;;;;;;;;;;5036610;28;20029;-78
2023/04/27 02:18:31;;;;;;;0.95;0.20;;;;;;;;;;5020684;28;20039;-79
2023/04/27 02:20:57;;;;;;;0.30;0.30;;;;;;;;;;5020530;28;20107;-78
2023/04/27 02:23:22;;;;;;;0.65;0.65;;;;;;;;;;5037094;28;20439;-77
2023/04/27 02:25:48;;;;;;;0.45;0.17;;;;;;;;;;5054659;28;20033;-78
2023/04/27 02:28:13;;;;;;;0.30;0.25;;;;;;;;;;5036588;28;20388;-78
2023/04/27 02:30:39;;;;;;;0.40;0.20;;;;;;;;;;5020035;28;20029;-78
2023/04/27 02:33:04;;;;;;;0.10;0.10;;;;;;;;;;5020345;28;20071;-78
2023/04/27 02:35:32;;;;;;;0.22;0.22;;;;;;;;;;5019916;28;20419;-78
2023/04/27 02:37:57;;;;;;;1.17;0.70;;;;;;;;;;5054308;28;20064;-78
2023/04/27 02:40:23;;;;;;;1.05;0.30;;;;;;;;;;5035593;28;20064;-77
2023/04/27 02:42:48;;;;;;;1.35;0.45;;;;;;;;;;5019925;28;20111;-78
2023/04/27 02:45:13;;;;;;;1.65;0.95;;;;;;;;;;5019776;28;20357;-78
2023/04/27 02:47:39;;;;;;;0.20;0.20;;;;;;;;;;5036436;28;20425;-78
2023/04/27 02:50:05;;;;;;;0.20;0.20;;;;;;;;;;5036378;28;20032;-78
2023/04/27 02:52:30;;;;;;;0.20;0.20;;;;;;;;;;5036177;28;20052;-78
2023/04/27 02:54:56;;;;;;;0.47;0.38;;;;;;;;;;5019917;28;20036;-78
2023/04/27 02:57:21;;;;;;;0.30;0.30;;;;;;;;;;5003597;28;20029;-78
2023/04/27 02:59:47;;;;;;;0.28;0.20;;;;;;;;;;5003375;28;20051;-78
2023/04/27 03:02:12;;;;;;;0.85;0.85;;;;;;;;;;5019888;28;20032;-79
2023/04/27 03:04:37;;;;;;;0.25;0.22;;;;;;;;;;5019868;28;20037;-78
2023/04/27 03:07:03;;;;;;;0.30;0.30;;;;;;;;;;5019539;28;20052;-78
2023/04/27 03:09:28;;;;;;;1.13;0.63;;;;;;;;;;5036148;28;20025;-77
2023/04/27 03:11:54;;;;;;;0.30;0.13;;;;;;;;;;5003428;28;20116;-77
2023/04/27 03:14:20;;;;;;;1.25;0.52;;;;;;;;;;5053456;28;20381;-78
2023/04/27 03:16:45;;;;;;;0.40;0.40;;;;;;;;;;5003461;28;20025;-78
2023/04/27 03:19:11;;;;;;;0.22;0.22;;;;;;;;;;5003421;28;20068;-78
2023/04/27 03:21:36;;;;;;;0.10;0.10;;;;;;;;;;5019824;28;20074;-78
2023/04/27 03:24:02;;;;;;;0.20;0.20;;;;;;;;;;5019757;28;20029;-78
2023/04/27 03:26:27;;;;;;;0.20;0.20;;;;;;;;;;5053856;28;20457;-78
2023/04/27 03:28:53;;;;;;;2.53;0.60;;;;;;;;;;5019259;28;20410;-78
2023/04/27 03:31:18;;;;;;;0.63;0.45;;;;;;;;;;5053627;28;20053;-77
2023/04/27 03:33:44;;;;;;;0.98;0.98;;;;;;;;;;5019425;28;20383;-78
2023/04/27 03:36:10;;;;;;;0.35;0.35;;;;;;;;;;5035742;28;20045;-78
2023/04/27 03:38:35;;;;;;;0.55;0.20;;;;;;;;;;5019374;28;20063;-77
2023/04/27 03:41:00;;;;;;;0.43;0.35;;;;;;;;;;5035763;28;20032;-78
2023/04/27 03:43:26;;;;;;;0.03;0.03;;;;;;;;;;5035525;28;20037;-77
2023/04/27 03:45:51;;;;;;;0.70;0.70;;;;;;;;;;5019314;28;20432;-77
2023/04/27 03:48:17;;;;;;;3.20;1.80;;;;;;;;;;5003248;28;20056;-78
2023/04/27 03:50:43;;;;;;;2.85;1.70;;;;;;;;;;5035709;28;20035;-77
2023/04/27 03:53:08;;;;;;;6.03;0.28;;;;;;;;;;5038939;28;20082;-78
2023/04/27 03:55:59;;;;;;;0.38;0.38;;;;;;;;;;5022891;28;20043;-78
2023/04/27 03:58:25;;;;;;;0.30;0.28;;;;;;;;;;5042566;28;20545;-78
2023/04/27 04:00:51;;;;;;;0.52;0.40;;;;;;;;;;5039376;28;20116;-78
2023/04/27 04:03:16;;;;;;;2.17;0.65;;;;;;;;;;5006958;28;20335;-78
2023/04/27 04:05:41;;;;;;;0.68;0.68;;;;;;;;;;5023134;28;20032;-77
2023/04/27 04:08:07;;;;;;;1.02;0.68;;;;;;;;;;5039329;28;20543;-78
2023/04/27 04:10:32;;;;;;;0.20;0.20;;;;;;;;;;5023076;28;20021;-79
2023/04/27 04:12:58;;;;;;;0.65;0.55;;;;;;;;;;5056990;28;20075;-77
2023/04/27 04:15:23;;;;;;;1.05;0.40;;;;;;;;;;5021655;28;20170;-78
2023/04/27 04:17:48;;;;;;;0.32;0.32;;;;;;;;;;5022489;28;20032;-78
2023/04/27 04:20:14;;;;;;;2.67;0.63;;;;;;;;;;5039209;28;20127;-79
2023/04/27 04:22:40;;;;;;;0.28;0.28;;;;;;;;;;5022460;28;20357;-78
2023/04/27 04:25:06;;;;;;;0.15;0.15;;;;;;;;;;5006252;28;20031;-78
2023/04/27 04:27:32;;;;;;;0.03;0.03;;;;;;;;;;5006140;28;20025;-77
2023/04/27 04:29:59;;;;;;;0.63;0.32;;;;;;;;;;5037455;28;20131;-78
2023/04/27 04:32:27;;;;;;;0.65;0.63;;;;;;;;;;5029379;28;20048;-81
2023/04/27 04:34:53;;;;;;;0.50;0.50;;;;;;;;;;5020160;28;20120;-80
2023/04/27 04:37:18;;;;;;;0.52;0.50;;;;;;;;;;5035060;28;20507;-80
2023/04/27 04:39:44;;;;;;;0.20;0.20;;;;;;;;;;5040539;28;20103;-80
2023/04/27 04:42:10;;;;;;;0.32;0.22;;;;;;;;;;5036473;28;20024;-84
2023/04/27 04:44:36;;;;;;;0.47;0.40;;;;;;;;;;5019564;28;20041;-83
2023/04/27 04:47:01;;;;;;;3.45;0.95;;;;;;;;;;5018142;28;20060;-83
2023/04/27 04:49:26;;;;;;;0.65;0.40;;;;;;;;;;5035030;28;20033;-83
2023/04/27 04:51:52;;;;;;;0.40;0.22;;;;;;;;;;5049176;28;20041;-83
2023/04/27 04:54:17;;;;;;;0.65;0.57;;;;;;;;;;5034243;28;20060;-84
2023/04/27 04:56:43;;;;;;;0.63;0.60;;;;;;;;;;5031471;28;20134;-82
2023/04/27 04:59:12;;;;;;;2.67;1.50;;;;;;;;;;5027969;28;20067;-79
2023/04/27 05:01:54;;;;;;;2.08;0.70;;;;;;;;;;5044811;28;20029;-80
2023/04/27 05:04:23;;;;;;;0.93;0.38;;;;;;;;;;5026250;28;20052;-80
2023/04/27 05:06:49;;;;;;;0.40;0.25;;;;;;;;;;5051219;28;20040;-83
2023/04/27 05:09:14;;;;;;;0.65;0.60;;;;;;;;;;5028803;28;20033;-85
2023/04/27 05:11:40;;;;;;;3.60;1.45;;;;;;;;;;4996534;28;20037;-80
2023/04/27 05:14:05;;;;;;;0.30;0.30;;;;;;;;;;5038840;28;20137;-80
2023/04/27 05:16:31;;;;;;;1.45;0.85;;;;;;;;;;5035539;28;20090;-79
2023/04/27 05:18:56;;;;;;;0.65;0.50;;;;;;;;;;5046582;28;20033;-78
2023/04/27 05:21:25;;;;;;;0.28;0.28;;;;;;;;;;5045405;28;20041;-78
2023/04/27 05:23:51;;;;;;;0.50;0.50;;;;;;;;;;5035381;28;20036;-77
2023/04/27 05:26:17;;;;;;;0.30;0.30;;;;;;;;;;5021160;28;20033;-80
2023/04/27 05:28:43;;;;;;;0.75;0.45;;;;;;;;;;5025613;28;20367;-79
2023/04/27 05:31:15;;;;;;;0.60;0.60;;;;;;;;;;5022047;28;20033;-80
2023/04/27 05:33:40;;;;;;;0.98;0.50;;;;;;;;;;5047245;28;20094;-79
2023/04/27 05:36:11;;;;;;;0.57;0.45;;;;;;;;;;5048724;28;20041;-79
2023/04/27 05:38:39;;;;;;;0.38;0.35;;;;;;;;;;5031517;28;20033;-79
2023/04/27 05:41:04;;;;;;;0.45;0.43;;;;;;;;;;5032226;28;20040;-80
2023/04/27 05:43:30;;;;;;;0.45;0.45;;;;;;;;;;5045136;28;20043;-79
2023/04/27 05:45:55;;;;;;;0.30;0.30;;;;;;;;;;5041841;28;20037;-79
2023/04/27 05:48:21;;;;;;;1.15;0.50;;;;;;;;;;5043269;28;20442;-78
2023/04/27 05:50:46;;;;;;;0.68;0.65;;;;;;;;;;5025576;28;20031;-77
2023/04/27 05:53:22;;;;;;;2.10;1.08;;;;;;;;;;5030561;28;20040;-80
2023/04/27 05:55:47;;;;;;;0.98;0.63;;;;;;;;;;5024323;28;20052;-76
2023/04/27 05:58:20;;;;;;;1.25;1.05;;;;;;;;;;5026961;28;20168;-80
2023/04/27 06:00:46;;;;;;;1.23;0.93;;;;;;;;;;5048734;28;20036;-78
2023/04/27 06:03:11;;;;;;;1.67;1.33;;;;;;;;;;5032747;28;20036;-77
2023/04/27 06:05:37;;;;;;;0.63;0.63;;;;;;;;;;5049501;28;20036;-80
2023/04/27 06:08:03;;;;;;;0.70;0.60;;;;;;;;;;5048092;28;20066;-79
2023/04/27 06:10:28;;;;;;;1.70;1.10;;;;;;;;;;5045561;28;20757;-80
2023/04/27 06:12:53;;;;;;;1.45;1.20;;;;;;;;;;5040151;28;20465;-80
2023/04/27 06:15:19;;;;;;;0.77;0.77;;;;;;;;;;5049980;28;20033;-80
2023/04/27 06:17:45;;;;;;;1.88;1.45;;;;;;;;;;5050593;28;20609;-79
2023/04/27 06:20:11;;;;;;;2.33;1.27;;;;;;;;;;5050186;28;20086;-79
2023/04/27 06:22:37;;;;;;;3.05;1.23;;;;;;;;;;5048902;28;20033;-78
2023/04/27 06:25:04;;;;;;;1.10;1.00;;;;;;;;;;5049146;28;20103;-79
2023/04/27 06:27:33;;;;;;;2.13;1.35;;;;;;;;;;5036093;28;20037;-79
2023/04/27 06:29:58;;;;;;;1.00;0.88;;;;;;;;;;5012322;28;20033;-80
2023/04/27 06:32:24;;;;;;;2.70;1.30;;;;;;;;;;5036690;28;20040;-80
2023/04/27 06:34:50;;;;;;;3.05;1.30;;;;;;;;;;5031983;28;20036;-79
2023/04/27 06:37:16;;;;;;;2.13;1.60;;;;;;;;;;5049554;28;20029;-80
2023/04/27 06:39:42;;;;;;;2.58;1.70;;;;;;;;;;5051612;28;20040;-78
2023/04/27 06:42:08;;;;;;;1.95;1.42;;;;;;;;;;5053360;28;20415;-80
2023/04/27 06:44:33;;;;;;;0.98;0.90;;;;;;;;;;5033141;28;20123;-79
2023/04/27 06:46:59;;;;;;;1.92;1.23;;;;;;;;;;5053258;28;20071;-82
2023/04/27 06:49:24;;;;;;;1.90;1.20;;;;;;;;;;5051067;28;20389;-80
2023/04/27 06:51:56;;;;;;;5.93;2.83;;;;;;;;;;5048908;28;20378;-78
2023/04/27 06:54:22;;;;;;;1.38;1.27;;;;;;;;;;5016700;28;20106;-77
2023/04/27 06:57:06;;;;;;;0.68;0.63;;;;;;;;;;5043503;28;20037;-77
2023/04/27 06:59:31;;;;;;;1.15;0.80;;;;;;;;;;5024147;28;20145;-80
2023/04/27 07:01:57;;;;;;;2.65;1.67;;;;;;;;;;5034386;28;20127;-76
2023/04/27 07:04:22;;;;;;;1.45;0.85;;;;;;;;;;5042505;28;20071;-80
2023/04/27 07:06:48;;;;;;;1.65;0.95;;;;;;;;;;5008847;28;20114;-77
2023/04/27 07:09:13;;;;;;;1.95;1.08;;;;;;;;;;5046117;28;20705;-78
2023/04/27 07:11:39;;;;;;;2.60;1.20;;;;;;;;;;5031254;28;20023;-79
2023/04/27 07:14:04;;;;;;;2.42;1.15;;;;;;;;;;5029610;28;20029;-79
2023/04/27 07:16:30;;;;;;;1.38;0.90;;;;;;;;;;5046798;28;20037;-80
2023/04/27 07:18:55;;;;;;;1.35;1.05;;;;;;;;;;5046851;28;20025;-80
2023/04/27 07:21:21;;;;;;;1.30;0.98;;;;;;;;;;5002284;28;20648;-81
2023/04/27 07:23:46;;;;;;;1.42;1.13;;;;;;;;;;4995126;28;20369;-80
2023/04/27 07:26:13;;;;;;;1.23;0.70;;;;;;;;;;4996718;28;20075;-79
2023/04/27 07:28:39;;;;;;;1.05;0.95;;;;;;;;;;5017047;28;20614;-79
2023/04/27 07:31:05;;;;;;;2.83;1.63;;;;;;;;;;5018721;28;20033;-78
2023/04/27 07:33:31;;;;;;;1.77;0.98;;;;;;;;;;5001775;28;20041;-80
2023/04/27 07:36:01;;;;;;;0.88;0.73;;;;;;;;;;5028660;28;20059;-80
2023/04/27 07:38:28;;;;;;;0.70;0.70;;;;;;;;;;5017996;28;20105;-80
2023/04/27 07:40:54;;;;;;;1.85;1.25;;;;;;;;;;5019395;28;20071;-80
2023/04/27 07:43:21;;;;;;;0.60;0.50;;;;;;;;;;5052009;28;20053;-80
2023/04/27 07:45:48;;;;;;;1.63;1.52;;;;;;;;;;5036563;28;20416;-80
2023/04/27 07:48:13;;;;;;;1.13;0.85;;;;;;;;;;5016117;28;20037;-78
2023/04/27 07:50:39;;;;;;;0.82;0.68;;;;;;;;;;5007189;28;20718;-80
2023/04/27 07:53:05;;;;;;;2.53;1.17;;;;;;;;;;5017561;28;20033;-79
2023/04/27 07:55:30;;;;;;;1.85;1.02;;;;;;;;;;5048605;28;20521;-77
2023/04/27 07:57:56;;;;;;;0.68;0.68;;;;;;;;;;5014937;28;20037;-78
2023/04/27 08:00:22;;;;;;;0.90;0.80;;;;;;;;;;5008653;28;20031;-80
2023/04/27 08:02:48;;;;;;;1.02;0.90;;;;;;;;;;5039498;28;20037;-79
2023/04/27 08:05:13;;;;;;;1.52;0.50;;;;;;;;;;5038502;28;20709;-78
2023/04/27 08:07:39;;;;;;;1.15;0.80;;;;;;;;;;5042356;28;20041;-78
2023/04/27 08:10:06;;;;;;;0.88;0.63;;;;;;;;;;5034642;28;20036;-79
2023/04/27 08:12:32;;;;;;;1.08;0.70;;;;;;;;;;5038383;28;20469;-80
2023/04/27 08:15:00;;;;;;;0.63;0.63;;;;;;;;;;5041799;28;20040;-78
2023/04/27 08:17:26;;;;;;;0.85;0.65;;;;;;;;;;5027428;28;20063;-78
2023/04/27 08:19:54;;;;;;;0.88;0.75;;;;;;;;;;5041615;28;20029;-79
2023/04/27 08:22:25;;;;;;;0.60;0.60;;;;;;;;;;5023030;28;20049;-81
2023/04/27 08:24:50;;;;;;;1.00;0.80;;;;;;;;;;4991779;28;20037;-77
2023/04/27 08:27:16;;;;;;;0.93;0.60;;;;;;;;;;5009796;28;20068;-79
2023/04/27 08:29:48;;;;;;;1.23;1.10;;;;;;;;;;5016365;28;20029;-79
2023/04/27 08:32:13;;;;;;;1.08;0.80;;;;;;;;;;5037422;28;20059;-78
2023/04/27 08:34:43;;;;;;;0.73;0.70;;;;;;;;;;5049715;28;20028;-80
2023/04/27 08:37:09;;;;;;;0.93;0.80;;;;;;;;;;4998699;28;20131;-78
2023/04/27 08:39:35;;;;;;;1.08;0.88;;;;;;;;;;5052595;28;20435;-79
2023/04/27 08:42:00;;;;;;;0.55;0.50;;;;;;;;;;5035975;28;20029;-79
2023/04/27 08:44:26;;;;;;;3.78;1.08;;;;;;;;;;5031769;28;20041;-78
2023/04/27 08:46:51;;;;;;;1.85;0.80;;;;;;;;;;5027212;28;20067;-80
2023/04/27 08:49:17;;;;;;;1.40;0.93;;;;;;;;;;5052892;28;20033;-78
2023/04/27 08:51:42;;;;;;;0.90;0.73;;;;;;;;;;5035900;28;20244;-80
2023/04/27 08:54:08;;;;;;;0.70;0.70;;;;;;;;;;5016454;28;20025;-77
2023/04/27 08:56:38;;;;;;;0.98;0.80;;;;;;;;;;5043690;28;20041;-81
2023/04/27 08:59:12;;;;;;;0.70;0.60;;;;;;;;;;5049309;28;20036;-79
2023/04/27 09:01:42;;;;;;;1.20;1.05;;;;;;;;;;5039571;28;20059;-77
2023/04/27 09:04:08;;;;;;;;;;;;;;;;;;5022320;28;20025;-79
2023/04/27 09:06:34;;;;;;;1.33;0.82;;;;;;;;;;5048762;28;19924;-79
2023/04/27 09:09:00;;;;;;;1.42;0.90;;;;;;;;;;5011700;28;20033;-79
2023/04/27 09:11:30;;;;;;;0.77;0.68;;;;;;;;;;5023687;28;20036;-80
2023/04/27 09:13:55;;;;;;;;;;;;;;;;;;5048131;28;20504;-78
2023/04/27 09:16:25;;;;;;;6.28;1.90;;;;;;;;;;5030295;28;19963;-79
2023/04/27 09:18:50;;;;;;;0.85;0.70;;;;;;;;;;5033268;28;20424;-79
2023/04/27 09:21:26;;;;;;;0.70;0.50;;;;;;;;;;5046439;28;20029;-79
2023/04/27 09:23:52;;;;;;;1.50;1.05;;;;;;;;;;5048958;28;20029;-78
2023/04/27 09:26:22;;;;;;;3.38;0.90;;;;;;;;;;5010459;28;20037;-80
2023/04/27 09:28:51;;;;;;;;;;;;;;;;;;5042539;28;20029;-79
2023/04/27 09:31:17;;;;;;;1.33;1.00;;;;;;;;;;5026584;28;20003;-80
2023/04/27 09:33:43;;;;;;;1.33;0.73;;;;;;;;;;5040045;28;20112;-78
2023/04/27 09:36:09;;;;;;;1.38;1.10;;;;;;;;;;5047953;28;20390;-79
2023/04/27 09:38:35;;;;;;;0.93;0.85;;;;;;;;;;5042192;28;20037;-78
2023/04/27 09:41:01;;;;;;;0.60;0.60;;;;;;;;;;5043736;28;20026;-80
2023/04/27 09:43:37;;;;;;;0.98;0.88;;;;;;;;;;5024447;28;20040;-78
2023/04/27 09:46:03;;;;;;;1.48;1.05;;;;;;;;;;5015964;28;20029;-77
2023/04/27 09:48:28;;;;;;;1.00;0.90;;;;;;;;;;5037288;28;20025;-78
2023/04/27 09:50:54;;;;;;;1.65;1.20;;;;;;;;;;5036934;28;20120;-78
2023/04/27 09:53:23;;;;;;;1.38;1.27;;;;;;;;;;5044912;28;20024;-79
2023/04/27 09:56:10;;;;;;;1.80;0.88;;;;;;;;;;5022789;28;20470;-78
2023/04/27 09:58:38;;;;;;;1.52;0.98;;;;;;;;;;5026459;28;20645;-78
2023/04/27 10:01:26;;;;;;;1.63;0.50;;;;;;;;;;5028466;28;20538;-77
2023/04/27 10:04:28;;;;;;;0.40;0.40;;;;;;;;;;5029562;28;20028;-78
2023/04/27 10:07:16;;;;;;;1.13;0.75;;;;;;;;;;5027698;28;20356;-77
2023/04/27 10:09:48;;;;;;;1.92;0.80;;;;;;;;;;4998887;28;20120;-76
2023/04/27 10:12:18;;;;;;;0.93;0.68;;;;;;;;;;5029379;28;20036;-78
2023/04/27 10:14:51;;;;;;;2.85;1.33;;;;;;;;;;5047613;28;20025;-79
2023/04/27 10:17:17;;;;;;;1.45;0.70;;;;;;;;;;5012681;28;20070;-79
2023/04/27 10:19:56;;;;;;;1.08;0.60;;;;;;;;;;5047186;28;20052;-79
2023/04/27 10:22:21;;;;;;;0.93;0.60;;;;;;;;;;5054166;28;20033;-79
2023/04/27 10:24:50;;;;;;;0.80;0.50;;;;;;;;;;5031661;28;20048;-79
2023/04/27 10:27:18;;;;;;;3.95;0.70;;;;;;;;;;5018469;28;20025;-77
2023/04/27 10:29:45;;;;;;;0.95;0.60;;;;;;;;;;5033744;28;20025;-79
2023/04/27 10:32:24;;;;;;;1.13;0.60;;;;;;;;;;5002929;28;20040;-79
2023/04/27 10:35:02;;;;;;;1.17;0.70;;;;;;;;;;5044187;28;20112;-78
2023/04/27 10:37:41;;;;;;;0.70;0.50;;;;;;;;;;5037692;28;20536;-78
2023/04/27 10:40:13;;;;;;;0.68;0.68;;;;;;;;;;5025735;28;20059;-78
2023/04/27 10:42:43;;;;;;;0.63;0.50;;;;;;;;;;5008655;28;20037;-78
2023/04/27 10:45:11;;;;;;;0.57;0.57;;;;;;;;;;5014971;28;20021;-78
2023/04/27 10:47:41;;;;;;;0.73;0.70;;;;;;;;;;5029372;28;20059;-77
2023/04/27 10:50:17;;;;;;;1.55;0.73;;;;;;;;;;5029708;28;20109;-75
2023/04/27 10:52:43;;;;;;;0.52;0.52;;;;;;;;;;5031464;28;20033;-77
2023/04/27 10:55:21;;;;;;;0.60;0.60;;;;;;;;;;5059139;28;20055;-76
2023/04/27 10:57:50;;;;;;;0.77;0.73;;;;;;;;;;5057622;28;20033;-78
2023/04/27 11:00:29;;;;;;;0.45;0.45;;;;;;;;;;5057744;28;20029;-79
2023/04/27 11:02:56;;;;;;;0.73;0.60;;;;;;;;;;5037321;28;20150;-79
2023/04/27 11:05:24;;;;;;;0.70;0.70;;;;;;;;;;5024279;28;20025;-78
2023/04/27 11:08:02;;;;;;;0.95;0.73;;;;;;;;;;5037982;28;20045;-76
2023/04/27 11:10:28;;;;;;;0.60;0.60;;;;;;;;;;5034019;28;20094;-75
2023/04/27 11:12:54;;;;;;;0.73;0.73;;;;;;;;;;5024193;28;20025;-77
2023/04/27 11:15:20;;;;;;;0.50;0.50;;;;;;;;;;5023791;28;20351;-78
2023/04/27 11:17:45;;;;;;;0.70;0.65;;;;;;;;;;5025134;28;20343;-77
2023/04/27 11:20:11;;;;;;;0.32;0.32;;;;;;;;;;5007093;28;20476;-77
2023/04/27 11:22:44;;;;;;;0.57;0.50;;;;;;;;;;5042186;28;20033;-79
2023/04/27 11:25:10;;;;;;;0.57;0.57;;;;;;;;;;5047430;28;20044;-78
2023/04/27 11:27:39;;;;;;;0.73;0.73;;;;;;;;;;5027610;28;20093;-80
2023/04/27 11:30:06;;;;;;;0.60;0.60;;;;;;;;;;5009865;28;20029;-80
2023/04/27 11:32:37;;;;;;;0.40;0.40;;;;;;;;;;5009311;28;20386;-80
2023/04/27 11:35:03;;;;;;;1.83;0.82;;;;;;;;;;5028504;28;20040;-80
2023/04/27 11:37:29;;;;;;;0.32;0.32;;;;;;;;;;5062891;28;20041;-80
2023/04/27 11:39:56;;;;;;;1.98;0.60;;;;;;;;;;5061038;28;20033;-82
2023/04/27 11:42:22;;;;;;;0.70;0.63;;;;;;;;;;5011913;28;20131;-79
2023/04/27 11:44:54;;;;;;;0.32;0.30;;;;;;;;;;5060470;28;20434;-80
2023/04/27 11:47:21;;;;;;;0.73;0.50;;;;;;;;;;5042439;28;20040;-81
2023/04/27 11:49:51;;;;;;;0.50;0.50;;;;;;;;;;5058378;28;20104;-80
2023/04/27 11:52:16;;;;;;;2.50;0.70;;;;;;;;;;5007707;28;20032;-81
2023/04/27 11:54:49;;;;;;;1.65;1.20;;;;;;;;;;5041028;28;20067;-81
2023/04/27 11:57:15;;;;;;;1.15;0.68;;;;;;;;;;5016700;28;20025;-80
2023/04/27 11:59:41;;;;;;;0.80;0.77;;;;;;;;;;5022939;28;20074;-86
2023/04/27 12:02:06;;;;;;;3.45;1.83;;;;;;;;;;5041552;28;20035;-86
2023/04/27 12:04:32;;;;;;;4.10;2.58;;;;;;;;;;5022793;28;20021;-83
2023/04/27 12:07:00;;;;;;;3.92;1.23;;;;;;;;;;5038877;28;20052;-81
2023/04/27 12:09:27;;;;;;;1.30;0.88;;;;;;;;;;5053550;28;20438;-82
2023/04/27 12:11:53;;;;;;;4.68;2.85;;;;;;;;;;5006091;28;20052;-84
2023/04/27 12:14:19;;;;;;;3.28;1.00;;;;;;;;;;5043743;28;20025;-84
2023/04/27 12:16:45;;;;;;;0.95;0.90;;;;;;;;;;5011240;28;20032;-85
2023/04/27 12:19:10;;;;;;;6.78;2.50;;;;;;;;;;5026776;28;20049;-79
2023/04/27 12:21:36;;;;;;;3.35;2.35;;;;;;;;;;5043187;28;20395;-85
2023/04/27 12:24:01;;;;;;;1.92;0.95;;;;;;;;;;5027428;28;20488;-82
2023/04/27 12:26:28;;;;;;;1.00;0.90;;;;;;;;;;5028312;28;20021;-83
2023/04/27 12:28:56;;;;;;;3.30;1.75;;;;;;;;;;5045098;28;20312;-86
2023/04/27 12:31:24;;;;;;;1.00;0.98;;;;;;;;;;5029965;28;20029;-84
2023/04/27 12:33:50;;;;;;;3.90;2.22;;;;;;;;;;5027590;28;20043;-82
2023/04/27 12:36:16;;;;;;;2.08;1.17;;;;;;;;;;5029068;28;20036;-81
2023/04/27 12:38:42;;;;;;;2.67;1.58;;;;;;;;;;5046944;28;20029;-86
2023/04/27 12:41:07;;;;;;;1.10;0.90;;;;;;;;;;5046239;28;20056;-87
2023/04/27 12:43:36;;;;;;;2.45;1.23;;;;;;;;;;5013481;28;20039;-83
2023/04/27 12:46:03;;;;;;;3.08;1.67;;;;;;;;;;5029153;28;20029;-81
2023/04/27 12:48:28;;;;;;;2.80;1.42;;;;;;;;;;5043973;28;20051;-81
2023/04/27 12:50:54;;;;;;;0.70;0.70;;;;;;;;;;5044430;28;20048;-83
2023/04/27 12:53:20;;;;;;;1.75;1.10;;;;;;;;;;5028318;28;20060;-80
2023/04/27 12:55:46;;;;;;;8.27;2.80;;;;;;;;;;5021967;28;20453;-82
2023/04/27 12:58:11;;;;;;;2.63;2.00;;;;;;;;;;5022221;28;20033;-81
2023/04/27 13:00:37;;;;;;;1.73;1.20;;;;;;;;;;5056236;28;20025;-82
2023/04/27 13:03:03;;;;;;;1.58;1.42;;;;;;;;;;5005819;28;20025;-82
2023/04/27 13:05:28;;;;;;;0.68;0.68;;;;;;;;;;5038125;28;20044;-83
2023/04/27 13:07:54;;;;;;;1.67;1.10;;;;;;;;;;5021899;28;20060;-82
2023/04/27 13:10:19;;;;;;;1.00;0.65;;;;;;;;;;5022103;28;20036;-81
2023/04/27 13:12:45;;;;;;;3.15;1.40;;;;;;;;;;5055556;28;20037;-82
2023/04/27 13:15:10;;;;;;;1.10;0.57;;;;;;;;;;5056400;28;20037;-82
2023/04/27 13:17:36;;;;;;;0.60;0.57;;;;;;;;;;5054916;28;20104;-83
2023/04/27 13:20:01;;;;;;;0.73;0.73;;;;;;;;;;5021409;28;20033;-83
2023/04/27 13:22:27;;;;;;;0.40;0.32;;;;;;;;;;5054305;28;20040;-83
2023/04/27 13:24:52;;;;;;;0.60;0.60;;;;;;;;;;5053387;28;20472;-83
2023/04/27 13:27:20;;;;;;;1.00;0.30;;;;;;;;;;5055537;28;20025;-82
2023/04/27 13:29:48;;;;;;;0.30;0.30;;;;;;;;;;5025905;28;20030;-83
2023/04/27 13:32:13;;;;;;;0.57;0.57;;;;;;;;;;5054161;28;20072;-83
2023/04/27 13:34:39;;;;;;;1.45;0.70;;;;;;;;;;5055508;28;20465;-82
2023/04/27 13:37:05;;;;;;;0.98;0.70;;;;;;;;;;5055179;28;20029;-83
2023/04/27 13:39:31;;;;;;;0.60;0.47;;;;;;;;;;5045637;28;20029;-83
2023/04/27 13:41:57;;;;;;;0.47;0.43;;;;;;;;;;5034375;28;20120;-82
2023/04/27 13:44:22;;;;;;;0.50;0.50;;;;;;;;;;5033833;28;20135;-83
2023/04/27 13:46:48;;;;;;;0.40;0.40;;;;;;;;;;5033923;28;20025;-82
2023/04/27 13:49:13;;;;;;;0.20;0.20;;;;;;;;;;5034000;28;20025;-83
2023/04/27 13:51:39;;;;;;;0.40;0.40;;;;;;;;;;5033742;28;20029;-83
2023/04/27 13:54:04;;;;;;;0.47;0.40;;;;;;;;;;5033775;28;20025;-80
2023/04/27 13:56:30;;;;;;;0.40;0.40;;;;;;;;;;5034398;28;20044;-83
2023/04/27 13:58:55;;;;;;;0.40;0.40;;;;;;;;;;5035130;28;20116;-84
2023/04/27 14:01:21;;;;;;;0.32;0.32;;;;;;;;;;5033845;28;20112;-81
2023/04/27 14:03:46;;;;;;;0.38;0.38;;;;;;;;;;5017157;28;20083;-82
2023/04/27 14:06:12;;;;;;;0.35;0.35;;;;;;;;;;5017069;28;20033;-83
2023/04/27 14:08:37;;;;;;;0.50;0.50;;;;;;;;;;5017024;28;20103;-82
2023/04/27 14:11:04;;;;;;;1.17;0.65;;;;;;;;;;5033853;28;20095;-82
2023/04/27 14:13:30;;;;;;;1.15;0.50;;;;;;;;;;5017501;28;20034;-81
2023/04/27 14:15:55;;;;;;;0.45;0.45;;;;;;;;;;5016900;28;20102;-80
2023/04/27 14:18:20;;;;;;;0.50;0.50;;;;;;;;;;5033468;28;20470;-80
2023/04/27 14:20:46;;;;;;;0.30;0.30;;;;;;;;;;5033362;28;20044;-82
2023/04/27 14:23:11;;;;;;;0.68;0.43;;;;;;;;;;5033819;28;20362;-81
2023/04/27 14:25:37;;;;;;;0.22;0.22;;;;;;;;;;5033460;28;20450;-83
2023/04/27 14:28:04;;;;;;;0.63;0.63;;;;;;;;;;5016877;28;20030;-80
2023/04/27 14:30:31;;;;;;;0.30;0.30;;;;;;;;;;5015651;28;20367;-80
2023/04/27 14:32:56;;;;;;;0.43;0.43;;;;;;;;;;5029035;28;20468;-81
2023/04/27 14:35:22;;;;;;;0.77;0.50;;;;;;;;;;5052306;28;20040;-80
2023/04/27 14:37:51;;;;;;;1.60;1.33;;;;;;;;;;5054147;28;20028;-80
2023/04/27 14:40:17;;;;;;;0.57;0.57;;;;;;;;;;5052730;28;20454;-80